KHGR/HGR METAR and TAF weather

Enter ICAO airport designator
Station Type Date Time Source
KHGR METAR 2021/01/20 21:53 UTC NOAA

KHGR 202153Z 33011G16KT 10SM CLR 01/M11 A3010 RMK AO2 SLP208 T00111106


Station Type Date Time Source
KHGR Decoded METAR 2021/01/20 21:53 UTC NOAA

HAGERSTOWN REGIONAL AIRPORT, MD, United States (KHGR) 39-42N 077-44W 224M
Jan 20, 2021 - 04:53 PM EST / 2021.01.20 2153 UTC
Wind: from the NNW (330 degrees) at 13 MPH (11 KT) gusting to 18 MPH (16 KT):0
Visibility: 10 mile(s):0
Sky conditions: clear
Temperature: 34.0 F (1.1 C)
Windchill: 24 F (-4 C):1
Dew Point: 12.9 F (-10.6 C)
Relative Humidity: 41%
Pressure (altimeter): 30.1 in. Hg (1019 hPa)
ob: KHGR 202153Z 33011G16KT 10SM CLR 01/M11 A3010 RMK AO2 SLP208 T00111106
cycle: 22

Station Type Date Time Source
KHGR TAF UTC NOAA

Error!

Example: see airport list